METAR Data
IDs: Format: Raw Decoded Include TAF

Data at: 0219 UTC 20 Jan 2022

FNLU 200100Z VRB03KT 9000 FEW020 23/21 Q1012

TAF FNLU 192300Z 2000/2106 21006KT 9000 SCT020
  TEMPO 2002/2008 15005KT
  BECMG 2008/2010 VRB02KT
  TEMPO 2012/2016 24012KT 9999 FEW020


No METAR found for FNCA

TAF FNCA 192300Z 2000/2012 VRB03KT 9000 SCT015
  TEMPO 2008/2012 18006KT


No METAR found for FNBG

TAF FNBG 192300Z 2000/2012 VRB02KT 9000 SCT018
  BECMG 2010/2012 32008KT


No METAR found for FNHU

TAF FNHU 192300Z 2000/2012 VRB03KT 9999 FEW015 BKN025
  BECMG 2010/2012 22005KT


No METAR found for FNUE

TAF FNUE 192300Z 2000/2012 30006KT 9999 SCT025

No METAR found for FNGI

TAF FNGI 192300Z 2000/2012 22005KT 7000 -RADZ BKN018 FEW025CB
  PROB30
  TEMPO 2002/2006 3000 +TSRA
  BECMG 2006/2008 VRB02KT
  TEMPO 2008/2012 8000 DZ


No METAR found for FNUB

TAF FNUB 192300Z 2000/2012 VRB03KT 9999 SCT025
  BECMG 2010/2012 30008KT


No METAR found for FNMO

TAF FNMO 192300Z 2000/2012 VRB03KT 9999 SCT020
  BECMG 2010/1412 28012KT


No METAR found for FNUG
No TAF found for FNUG

No METAR found for FNMA

TAF FNMA 192300Z 2000/2012 28006KT 9999 FEW010 BKN040

No METAR found for FNSA

TAF FNSA 192300Z 2000/2012 32005KT 9999 SCT022

No METAR found for FNSO

TAF FNSO 192300Z 2000/2012 18006KT 9000 SCT012

No METAR found for FNBC
No TAF found for FNBC

No METAR found for FNSU
No TAF found for FNSU

No METAR found for FNDU

TAF FNDU 192300Z 2000/2012 31004KT 9000 SCT020

No METAR found for FNME

TAF FNME 192300Z 2000/2012 VRB03KT 8000 DZ BKN020 FEW025CB
  TEMPO 2002/2008 26006KT 4000 TSRA


No METAR found for FNCT

TAF FNCT 192300Z 2000/2012 22004KT 9999 SCT018
  BECMG 2006/2008 VRB02KT
  BECMG 2010/2012 30010KT


No METAR found for FNKU

TAF FNKU 192300Z 2000/2012 26006KT 9999 BKN030